Terra Nova, Canada
Current Conditions -  °F | °C
As of 10:00 AM on Friday 31 Oct 2014 (Local Time) from CYQX Reporting Station
Few Clouds Few Clouds  
Wind Chill: 34°   Ceiling: Unl
Heat Index: 41°   Visibility: 20mi
Dew Point: 36°   Wind: 13mph
Humidity: 81%   Direction: 270°W
Pressure: 29.85"   Gusts: NA
Location:  48.5°N, 54.22°W
Report Text: CYQX 311200Z 27011KT 20SM FEW035 05/02 A2985 RMK SC1 CF/CI TR SLP114
Loading
Personal Weather Stations






























Interactive Weather Map
Tropical Storm Tracking
New forecast layout! Learn more

10-Day Weather Forecast

Advertisements
Track Severe Weather on mobile